Time;durP1;ratioP1;P1;durP2;ratioP2;P2;SDS_P1;SDS_P2;PMS_P1;PMS_P2;Temp;Humidity;BMP_temperature;BMP_pressure;BME280_temperature;BME280_humidity;BME280_pressure;Samples;Min_cycle;Max_cycle;Signal;HPM_P1;HPM_P2
2021/10/06 00:00:17;;;;;;;7.90;2.40;;;19.70;79.10;;;;;;5073102;28;20028;-79
2021/10/06 00:02:44;;;;;;;6.97;2.20;;;19.70;79.10;;;;;;5073329;28;20024;-82
2021/10/06 00:05:10;;;;;;;5.90;2.20;;;19.70;79.00;;;;;;5073341;28;20025;-82
2021/10/06 00:07:36;;;;;;;13.05;3.28;;;19.70;78.90;;;;;;5071743;28;20043;-82
2021/10/06 00:10:03;;;;;;;9.70;2.45;;;19.70;79.00;;;;;;5072783;28;20112;-80
2021/10/06 00:12:29;;;;;;;9.55;2.42;;;19.70;78.90;;;;;;5072958;28;20028;-81
2021/10/06 00:14:54;;;;;;;10.20;2.65;;;19.70;79.10;;;;;;5073114;28;20031;-81
2021/10/06 00:17:20;;;;;;;8.40;2.45;;;19.60;79.30;;;;;;5073021;28;20035;-81
2021/10/06 00:19:46;;;;;;;7.78;2.90;;;19.60;79.30;;;;;;5072736;28;20017;-82
2021/10/06 00:22:12;;;;;;;7.32;2.50;;;19.60;79.30;;;;;;5072800;28;20059;-81
2021/10/06 00:24:37;;;;;;;9.82;2.30;;;19.70;79.40;;;;;;5072764;28;20052;-81
2021/10/06 00:27:03;;;;;;;11.70;2.78;;;19.60;80.00;;;;;;5072727;28;20495;-81
2021/10/06 00:29:29;;;;;;;11.32;2.83;;;19.60;79.40;;;;;;5072912;28;20462;-81
2021/10/06 00:31:54;;;;;;;12.25;2.90;;;19.60;79.60;;;;;;5072851;28;20107;-81
2021/10/06 00:34:21;;;;;;;13.15;2.50;;;19.60;79.50;;;;;;5072827;28;20469;-81
2021/10/06 00:36:47;;;;;;;9.30;2.80;;;19.70;79.60;;;;;;5072755;28;20493;-82
2021/10/06 00:39:13;;;;;;;8.02;2.55;;;19.60;79.50;;;;;;5072511;28;20033;-80
2021/10/06 00:41:39;;;;;;;11.35;2.85;;;19.70;79.50;;;;;;5072524;28;20048;-81
2021/10/06 00:44:05;;;;;;;15.82;3.78;;;19.70;79.50;;;;;;5072974;28;20063;-81
2021/10/06 00:46:30;;;;;;;11.10;2.67;;;19.60;79.70;;;;;;5072630;28;20396;-82
2021/10/06 00:48:56;;;;;;;12.27;2.85;;;19.60;79.70;;;;;;5072680;28;20032;-81
2021/10/06 00:51:22;;;;;;;10.70;2.30;;;19.60;79.70;;;;;;5072823;28;20048;-81
2021/10/06 00:53:47;;;;;;;9.52;2.47;;;19.60;79.70;;;;;;5072713;28;20063;-82
2021/10/06 00:56:14;;;;;;;8.25;2.67;;;19.60;79.50;;;;;;5074843;28;20016;-82
2021/10/06 00:58:41;;;;;;;12.43;3.20;;;19.60;79.60;;;;;;5075051;28;20028;-82
2021/10/06 01:01:06;;;;;;;12.65;3.15;;;19.60;79.60;;;;;;5074084;28;20051;-83
2021/10/06 01:03:32;;;;;;;9.43;2.80;;;19.60;79.50;;;;;;5074153;28;20072;-82
2021/10/06 01:05:58;;;;;;;7.72;2.92;;;19.60;79.70;;;;;;5076124;28;20016;-81
2021/10/06 01:08:24;;;;;;;9.05;2.45;;;19.60;79.70;;;;;;5076202;28;20690;-80
2021/10/06 01:10:53;;;;;;;9.18;2.38;;;19.60;79.80;;;;;;5076234;28;20017;-81
2021/10/06 01:13:18;;;;;;;15.85;3.15;;;19.50;79.70;;;;;;5076151;28;20085;-82
2021/10/06 01:15:44;;;;;;;7.68;2.47;;;19.60;79.70;;;;;;5076265;28;20381;-82
2021/10/06 01:18:10;;;;;;;10.57;2.65;;;19.50;79.70;;;;;;5076121;28;20033;-82
2021/10/06 01:20:36;;;;;;;8.63;2.78;;;19.60;79.80;;;;;;5075864;28;20115;-83
2021/10/06 01:23:01;;;;;;;13.48;2.63;;;19.60;79.70;;;;;;5076034;28;20028;-81
2021/10/06 01:25:27;;;;;;;11.10;2.42;;;19.60;79.50;;;;;;5076047;28;20032;-80
2021/10/06 01:27:53;;;;;;;14.15;2.55;;;19.60;79.20;;;;;;5075622;28;20033;-81
2021/10/06 01:30:18;;;;;;;10.93;3.00;;;19.60;79.00;;;;;;5075598;28;20041;-81
2021/10/06 01:32:46;;;;;;;9.93;2.72;;;19.60;78.90;;;;;;5075991;28;20029;-82
2021/10/06 01:35:15;;;;;;;8.32;2.35;;;19.60;78.60;;;;;;5075746;28;20040;-80
2021/10/06 01:37:42;;;;;;;9.48;2.53;;;19.60;78.50;;;;;;5076187;28;20121;-81
2021/10/06 01:40:14;;;;;;;11.10;2.67;;;19.60;78.50;;;;;;5075445;28;20028;-81
2021/10/06 01:42:40;;;;;;;8.27;2.15;;;19.50;78.30;;;;;;5075338;28;20066;-81
2021/10/06 01:45:13;;;;;;;15.20;2.38;;;19.50;78.40;;;;;;5075454;28;20064;-80
2021/10/06 01:47:39;;;;;;;10.63;2.40;;;19.50;78.30;;;;;;5075568;28;20097;-81
2021/10/06 01:50:04;;;;;;;8.50;2.22;;;19.50;78.30;;;;;;5075017;28;20461;-81
2021/10/06 01:52:30;;;;;;;7.95;2.15;;;19.50;78.30;;;;;;5075666;28;20025;-81
2021/10/06 01:54:56;;;;;;;9.63;2.00;;;19.50;78.10;;;;;;5075588;28;20024;-81
2021/10/06 01:57:22;;;;;;;9.23;2.22;;;19.50;78.10;;;;;;5075718;28;20373;-82
2021/10/06 01:59:49;;;;;;;13.82;2.80;;;19.50;77.90;;;;;;5074992;28;20047;-80
2021/10/06 02:02:16;;;;;;;11.15;2.45;;;19.50;78.00;;;;;;5075168;28;20034;-81
2021/10/06 02:04:43;;;;;;;10.52;2.65;;;19.50;78.00;;;;;;5075525;28;20027;-80
2021/10/06 02:07:08;;;;;;;11.48;2.78;;;19.50;77.90;;;;;;5074721;28;20036;-81
2021/10/06 02:09:34;;;;;;;9.85;2.35;;;19.40;78.00;;;;;;5075105;28;20483;-81
2021/10/06 02:12:00;;;;;;;10.07;2.28;;;19.50;78.00;;;;;;5075152;28;20028;-81
2021/10/06 02:14:25;;;;;;;6.38;2.20;;;19.50;77.90;;;;;;5075203;28;20031;-81
2021/10/06 02:16:51;;;;;;;8.82;2.28;;;19.50;77.80;;;;;;5075064;28;20059;-81
2021/10/06 02:19:18;;;;;;;9.45;2.42;;;19.40;77.80;;;;;;5074543;28;20384;-75
2021/10/06 02:21:43;;;;;;;7.75;2.10;;;19.50;78.00;;;;;;5074944;28;20369;-83
2021/10/06 02:24:09;;;;;;;12.02;2.47;;;19.40;78.00;;;;;;5075080;28;20031;-82
2021/10/06 02:26:35;;;;;;;6.72;2.40;;;19.40;78.10;;;;;;5075040;28;20108;-82
2021/10/06 02:29:01;;;;;;;9.07;2.75;;;19.40;78.40;;;;;;5075419;28;20040;-77
2021/10/06 02:31:27;;;;;;;8.13;2.28;;;19.40;78.40;;;;;;5074449;28;20430;-81
2021/10/06 02:33:52;;;;;;;8.70;2.30;;;19.40;78.40;;;;;;5074831;28;20103;-82
2021/10/06 02:36:18;;;;;;;8.68;2.28;;;19.40;78.30;;;;;;5074489;28;20093;-81
2021/10/06 02:38:44;;;;;;;7.82;2.38;;;19.40;78.50;;;;;;5074516;28;20024;-82
2021/10/06 02:41:09;;;;;;;9.95;2.30;;;19.30;78.70;;;;;;5074434;28;20020;-84
2021/10/06 02:43:35;;;;;;;9.85;2.25;;;19.40;78.80;;;;;;5074429;28;20029;-81
2021/10/06 02:46:01;;;;;;;9.00;2.83;;;19.30;78.70;;;;;;5074437;28;20020;-82
2021/10/06 02:48:26;;;;;;;7.13;2.40;;;19.30;78.60;;;;;;5074580;28;20093;-82
2021/10/06 02:50:52;;;;;;;11.05;1.95;;;19.30;78.40;;;;;;5074498;28;20114;-82
2021/10/06 02:53:18;;;;;;;8.45;2.13;;;19.30;78.40;;;;;;5074344;28;20428;-82
2021/10/06 02:55:43;;;;;;;9.00;2.72;;;19.30;78.30;;;;;;5074445;28;20027;-82
2021/10/06 02:58:10;;;;;;;8.50;2.08;;;19.30;78.20;;;;;;5074570;28;20059;-82
2021/10/06 03:00:35;;;;;;;13.50;2.20;;;19.30;77.90;;;;;;5074352;28;20082;-82
2021/10/06 03:03:01;;;;;;;7.75;2.08;;;19.30;77.80;;;;;;5074315;28;20032;-81
2021/10/06 03:05:27;;;;;;;7.78;2.40;;;19.30;77.90;;;;;;5074427;28;20035;-82
2021/10/06 03:07:53;;;;;;;9.30;2.20;;;19.30;77.90;;;;;;5074005;28;20123;-81
2021/10/06 03:10:18;;;;;;;6.50;2.17;;;19.20;77.90;;;;;;5074101;28;20035;-82
2021/10/06 03:12:44;;;;;;;10.70;2.40;;;19.30;77.90;;;;;;5074155;28;20063;-81
2021/10/06 03:15:13;;;;;;;13.60;2.28;;;19.30;77.90;;;;;;5073741;28;20039;-82
2021/10/06 03:17:39;;;;;;;11.18;2.78;;;19.30;78.40;;;;;;5073830;28;20074;-82
2021/10/06 03:20:08;;;;;;;6.72;2.28;;;19.30;77.60;;;;;;5073845;28;20032;-80
2021/10/06 03:22:33;;;;;;;11.23;2.10;;;19.20;77.30;;;;;;5073765;28;20025;-82
2021/10/06 03:24:59;;;;;;;11.10;2.10;;;19.30;77.30;;;;;;5074104;28;20036;-81
2021/10/06 03:27:25;;;;;;;6.47;1.98;;;19.30;77.30;;;;;;5073528;28;20032;-81
2021/10/06 03:29:50;;;;;;;7.00;1.60;;;19.20;77.30;;;;;;5073282;28;20040;-81
2021/10/06 03:32:16;;;;;;;12.10;2.53;;;19.20;77.50;;;;;;5074086;28;20032;-81
2021/10/06 03:34:42;;;;;;;5.00;1.50;;;19.20;77.50;;;;;;5073514;28;20430;-76
2021/10/06 03:37:08;;;;;;;5.60;1.50;;;19.20;77.80;;;;;;5073620;28;20020;-80
2021/10/06 03:39:34;;;;;;;8.35;1.90;;;19.20;77.30;;;;;;5073425;28;20051;-81
2021/10/06 03:42:00;;;;;;;6.60;1.92;;;19.20;77.40;;;;;;5073319;28;20392;-81
2021/10/06 03:44:25;;;;;;;8.85;1.70;;;19.20;77.60;;;;;;5073429;28;20021;-81
2021/10/06 03:46:51;;;;;;;7.18;2.40;;;19.20;77.30;;;;;;5073459;28;20381;-82
2021/10/06 03:49:17;;;;;;;14.23;2.20;;;19.20;77.20;;;;;;5073479;28;20028;-81
2021/10/06 03:51:42;;;;;;;7.35;2.03;;;19.20;77.20;;;;;;5073384;28;20120;-81
2021/10/06 03:54:08;;;;;;;10.13;2.00;;;19.10;77.10;;;;;;5073266;28;20472;-80
2021/10/06 03:56:34;;;;;;;5.85;1.65;;;19.20;77.30;;;;;;5073167;28;20074;-81
2021/10/06 03:58:59;;;;;;;9.50;2.03;;;19.10;77.40;;;;;;5073232;28;20077;-81
2021/10/06 04:01:25;;;;;;;10.43;1.83;;;19.10;77.40;;;;;;5073439;28;20461;-82
2021/10/06 04:03:51;;;;;;;8.88;1.90;;;19.10;78.20;;;;;;5073295;28;20071;-81
2021/10/06 04:06:16;;;;;;;7.15;1.98;;;19.10;77.80;;;;;;5073158;28;20031;-81
2021/10/06 04:08:42;;;;;;;8.60;2.00;;;19.10;77.80;;;;;;5073081;28;20063;-81
2021/10/06 04:11:07;;;;;;;10.68;1.80;;;19.10;77.70;;;;;;5073003;28;20021;-81
2021/10/06 04:13:33;;;;;;;8.35;2.10;;;19.10;77.50;;;;;;5073061;28;20029;-81
2021/10/06 04:15:59;;;;;;;7.72;1.90;;;19.20;77.60;;;;;;5072916;28;20024;-81
2021/10/06 04:18:24;;;;;;;7.90;1.70;;;19.20;77.70;;;;;;5072948;28;20028;-82
2021/10/06 04:20:50;;;;;;;5.72;1.95;;;19.10;77.90;;;;;;5072799;28;20021;-79
2021/10/06 04:23:16;;;;;;;12.77;2.10;;;19.10;78.10;;;;;;5072972;28;20051;-80
2021/10/06 04:25:42;;;;;;;11.82;2.40;;;19.10;78.70;;;;;;5072907;28;20020;-80
2021/10/06 04:28:08;;;;;;;12.52;2.10;;;19.00;80.10;;;;;;5072894;28;20032;-81
2021/10/06 04:30:34;;;;;;;9.73;2.05;;;19.00;80.80;;;;;;5072040;28;20570;-80
2021/10/06 04:33:00;;;;;;;9.32;2.10;;;19.00;80.80;;;;;;5072826;28;20036;-76
2021/10/06 04:35:26;;;;;;;8.35;2.15;;;18.90;81.00;;;;;;5072929;28;20013;-79
2021/10/06 04:37:51;;;;;;;9.07;2.00;;;18.90;81.50;;;;;;5072778;28;20485;-80
2021/10/06 04:40:17;;;;;;;9.85;2.30;;;18.90;81.90;;;;;;5073172;28;20029;-81
2021/10/06 04:42:45;;;;;;;6.80;1.80;;;18.80;81.90;;;;;;5073410;28;20082;-81
2021/10/06 04:45:12;;;;;;;10.05;2.20;;;18.80;82.10;;;;;;5073418;28;20550;-83
2021/10/06 04:47:38;;;;;;;9.90;2.05;;;18.80;82.20;;;;;;5072973;28;20040;-81
2021/10/06 04:50:04;;;;;;;10.77;1.90;;;18.80;82.30;;;;;;5073203;28;20474;-81
2021/10/06 04:52:30;;;;;;;12.05;2.22;;;18.70;82.60;;;;;;5072933;28;20035;-81
2021/10/06 04:54:56;;;;;;;8.77;2.80;;;18.70;82.40;;;;;;5073019;28;20025;-81
2021/10/06 04:57:22;;;;;;;9.40;1.95;;;18.70;82.60;;;;;;5072905;28;20112;-79
2021/10/06 04:59:48;;;;;;;11.55;2.55;;;18.70;82.60;;;;;;5073230;28;20388;-82
2021/10/06 05:02:13;;;;;;;7.63;1.75;;;18.70;82.70;;;;;;5072782;28;20078;-82
2021/10/06 05:04:39;;;;;;;10.57;1.95;;;18.70;83.10;;;;;;5072961;28;20024;-81
2021/10/06 05:07:05;;;;;;;10.20;1.88;;;18.70;82.80;;;;;;5072965;28;20039;-81
2021/10/06 05:09:31;;;;;;;8.05;2.20;;;18.70;82.80;;;;;;5072456;28;20033;-82
2021/10/06 05:11:56;;;;;;;7.53;1.67;;;18.70;82.90;;;;;;5072619;28;20029;-82
2021/10/06 05:14:23;;;;;;;9.32;1.88;;;18.60;83.30;;;;;;5073880;28;20373;-81
2021/10/06 05:16:52;;;;;;;8.00;2.05;;;18.60;83.60;;;;;;5072486;28;20032;-82
2021/10/06 05:19:18;;;;;;;5.40;1.70;;;18.60;83.60;;;;;;5072513;28;20040;-82
2021/10/06 05:21:44;;;;;;;8.57;1.70;;;18.70;83.60;;;;;;5072443;28;20020;-79
2021/10/06 05:24:10;;;;;;;8.35;1.67;;;18.60;83.30;;;;;;5072257;28;20491;-80
2021/10/06 05:26:35;;;;;;;7.43;2.03;;;18.60;83.00;;;;;;5072321;28;20085;-80
2021/10/06 05:29:01;;;;;;;8.43;2.05;;;18.60;83.30;;;;;;5072313;28;20031;-79
2021/10/06 05:31:27;;;;;;;12.00;1.88;;;18.60;83.40;;;;;;5072166;28;20485;-76
2021/10/06 05:33:52;;;;;;;12.57;2.00;;;18.60;83.30;;;;;;5072164;28;20024;-79
2021/10/06 05:36:18;;;;;;;13.07;2.22;;;18.60;83.30;;;;;;5072214;28;20047;-78
2021/10/06 05:38:44;;;;;;;6.35;1.90;;;18.60;83.20;;;;;;5072013;28;20024;-79
2021/10/06 05:41:10;;;;;;;8.27;1.85;;;18.60;83.10;;;;;;5072414;28;20440;-79
2021/10/06 05:43:36;;;;;;;6.85;2.20;;;18.50;83.20;;;;;;5075233;28;20036;-79
2021/10/06 05:46:02;;;;;;;7.75;2.03;;;18.50;83.30;;;;;;5075832;28;20488;-78
2021/10/06 05:48:27;;;;;;;7.53;1.80;;;18.50;83.40;;;;;;5075573;28;20172;-78
2021/10/06 05:50:53;;;;;;;7.18;1.40;;;18.50;83.20;;;;;;5075719;28;20422;-78
2021/10/06 05:53:19;;;;;;;8.48;1.85;;;18.50;83.30;;;;;;5075656;28;20043;-77
2021/10/06 05:55:45;;;;;;;8.55;2.28;;;18.50;83.10;;;;;;5075470;28;20023;-77
2021/10/06 05:58:10;;;;;;;5.63;1.90;;;18.50;83.00;;;;;;5075143;28;20024;-78
2021/10/06 06:00:36;;;;;;;9.32;1.67;;;18.50;83.10;;;;;;5074754;28;20542;-79
2021/10/06 06:03:02;;;;;;;5.18;1.75;;;18.50;82.80;;;;;;5074759;28;20047;-79
2021/10/06 06:05:28;;;;;;;10.90;2.70;;;18.40;82.70;;;;;;5075151;28;20028;-80
2021/10/06 06:07:54;;;;;;;10.60;2.03;;;18.40;83.10;;;;;;5075149;28;20469;-79
2021/10/06 06:10:19;;;;;;;8.98;1.40;;;18.40;83.40;;;;;;5074701;28;20016;-79
2021/10/06 06:12:46;;;;;;;10.48;2.00;;;18.40;83.50;;;;;;5074139;28;20032;-79
2021/10/06 06:15:12;;;;;;;8.82;1.98;;;18.30;83.80;;;;;;5073604;28;20051;-78
2021/10/06 06:17:38;;;;;;;5.88;1.52;;;18.30;83.70;;;;;;5074807;28;20064;-77
2021/10/06 06:20:09;;;;;;;7.70;1.77;;;18.30;83.90;;;;;;5075077;28;20074;-80
2021/10/06 06:22:36;;;;;;;6.03;1.97;;;18.30;84.00;;;;;;5075105;28;20498;-79
2021/10/06 06:25:03;;;;;;;6.72;1.60;;;18.20;84.10;;;;;;5074323;28;20265;-79
2021/10/06 06:27:29;;;;;;;7.80;1.58;;;18.20;84.20;;;;;;5074835;28;20028;-80
2021/10/06 06:29:55;;;;;;;9.10;1.67;;;18.20;84.30;;;;;;5074018;28;20044;-79
2021/10/06 06:32:20;;;;;;;8.80;1.75;;;18.20;84.60;;;;;;5074851;28;20027;-79
2021/10/06 06:34:46;;;;;;;8.60;1.85;;;18.10;84.50;;;;;;5074701;28;20020;-79
2021/10/06 06:37:12;;;;;;;8.65;1.40;;;18.10;84.40;;;;;;5074528;28;20060;-74
2021/10/06 06:39:37;;;;;;;9.73;1.80;;;18.10;84.50;;;;;;5074620;28;20029;-79
2021/10/06 06:42:03;;;;;;;9.48;1.58;;;18.10;84.80;;;;;;5074709;28;20377;-79
2021/10/06 06:44:28;;;;;;;7.00;1.58;;;18.20;84.70;;;;;;5074655;28;20033;-80
2021/10/06 06:46:54;;;;;;;6.40;1.60;;;18.10;84.60;;;;;;5074614;28;20107;-79
2021/10/06 06:49:20;;;;;;;5.00;1.45;;;18.10;84.80;;;;;;5074791;28;20491;-78
2021/10/06 06:51:45;;;;;;;7.40;1.55;;;18.20;84.80;;;;;;5074477;28;20025;-79
2021/10/06 06:54:11;;;;;;;6.53;1.80;;;18.20;84.70;;;;;;5074200;28;20481;-79
2021/10/06 06:56:40;;;;;;;5.70;1.50;;;18.20;84.40;;;;;;5074233;28;20029;-79
2021/10/06 06:59:07;;;;;;;4.65;1.10;;;18.20;84.10;;;;;;5074172;28;20033;-78
2021/10/06 07:01:33;;;;;;;7.38;1.52;;;18.30;84.00;;;;;;5074190;28;20036;-79
2021/10/06 07:03:59;;;;;;;9.75;1.75;;;18.20;84.00;;;;;;5074041;28;20392;-79
2021/10/06 07:06:27;;;;;;;5.65;1.77;;;18.20;84.20;;;;;;5073246;28;20021;-79
2021/10/06 07:08:53;;;;;;;9.80;1.75;;;18.10;84.40;;;;;;5073887;28;20109;-80
2021/10/06 07:11:18;;;;;;;8.57;1.50;;;18.10;84.60;;;;;;5074102;28;20052;-80
2021/10/06 07:13:44;;;;;;;4.35;1.10;;;18.00;84.70;;;;;;5073894;28;20041;-79
2021/10/06 07:16:10;;;;;;;4.80;1.10;;;18.00;84.50;;;;;;5074165;28;20020;-79
2021/10/06 07:18:35;;;;;;;5.00;1.48;;;17.90;84.10;;;;;;5073462;28;20035;-79
2021/10/06 07:21:01;;;;;;;10.98;2.20;;;17.90;83.80;;;;;;5073885;28;20020;-79
2021/10/06 07:23:27;;;;;;;4.13;1.35;;;17.90;84.10;;;;;;5073868;28;20396;-80
2021/10/06 07:25:53;;;;;;;11.93;2.35;;;17.90;84.20;;;;;;5073841;28;20024;-80
2021/10/06 07:28:18;;;;;;;4.78;1.25;;;17.80;84.50;;;;;;5073514;28;20044;-78
2021/10/06 07:30:44;;;;;;;5.10;1.63;;;17.80;84.80;;;;;;5073475;28;20048;-78
2021/10/06 07:33:10;;;;;;;3.55;1.33;;;17.80;85.40;;;;;;5073559;28;20025;-79
2021/10/06 07:35:35;;;;;;;6.22;2.00;;;17.80;84.80;;;;;;5072314;28;20465;-79
2021/10/06 07:38:01;;;;;;;4.85;1.25;;;17.70;85.30;;;;;;5073599;28;20108;-79
2021/10/06 07:40:27;;;;;;;3.53;1.25;;;17.70;85.40;;;;;;5073462;28;20468;-79
2021/10/06 07:42:52;;;;;;;5.43;1.30;;;17.70;85.80;;;;;;5073282;28;20044;-78
2021/10/06 07:45:18;;;;;;;4.47;1.25;;;17.70;85.50;;;;;;5073069;28;20031;-79
2021/10/06 07:47:44;;;;;;;7.20;1.45;;;17.70;85.40;;;;;;5072119;28;20040;-78
2021/10/06 07:50:10;;;;;;;7.78;1.40;;;17.70;85.20;;;;;;5073024;28;20032;-78
2021/10/06 07:52:35;;;;;;;5.93;1.38;;;17.60;85.80;;;;;;5072697;28;20058;-78
2021/10/06 07:55:02;;;;;;;4.95;1.52;;;17.60;85.50;;;;;;5073357;28;20039;-78
2021/10/06 07:57:27;;;;;;;5.30;1.45;;;17.60;85.70;;;;;;5073345;28;20029;-78
2021/10/06 07:59:54;;;;;;;6.88;1.80;;;17.60;85.80;;;;;;5073602;28;20480;-78
2021/10/06 08:02:20;;;;;;;8.15;1.35;;;17.60;86.10;;;;;;5073271;28;20027;-78
2021/10/06 08:04:45;;;;;;;4.35;1.50;;;17.60;86.30;;;;;;5072323;28;20028;-78
2021/10/06 08:07:11;;;;;;;7.95;2.10;;;17.60;86.40;;;;;;5072965;28;20024;-77
2021/10/06 08:09:37;;;;;;;7.05;2.10;;;17.60;86.50;;;;;;5072950;28;20033;-77
2021/10/06 08:12:02;;;;;;;6.30;2.30;;;17.60;86.60;;;;;;5072791;28;20017;-78
2021/10/06 08:14:28;;;;;;;4.88;1.30;;;17.60;86.60;;;;;;5073096;28;20413;-78
2021/10/06 08:16:54;;;;;;;5.22;1.40;;;17.60;86.60;;;;;;5072359;28;20028;-77
2021/10/06 08:19:19;;;;;;;6.38;1.40;;;17.60;86.60;;;;;;5071307;28;20021;-78
2021/10/06 08:21:45;;;;;;;8.00;1.60;;;17.50;86.60;;;;;;5071803;28;20050;-79
2021/10/06 08:24:11;;;;;;;5.65;1.67;;;17.50;86.80;;;;;;5073145;28;20032;-79
2021/10/06 08:26:37;;;;;;;5.38;1.50;;;17.50;86.90;;;;;;5071669;28;20477;-79
2021/10/06 08:29:03;;;;;;;5.05;1.40;;;17.60;86.70;;;;;;5072582;28;20025;-79
2021/10/06 08:31:29;;;;;;;10.52;1.15;;;17.60;86.50;;;;;;5072567;28;20040;-76
2021/10/06 08:33:54;;;;;;;4.13;1.17;;;17.50;86.20;;;;;;5071745;28;20035;-78
2021/10/06 08:36:20;;;;;;;3.92;0.95;;;17.50;86.20;;;;;;5072761;28;20031;-79
2021/10/06 08:38:46;;;;;;;2.33;0.90;;;17.40;86.00;;;;;;5072483;28;20469;-82
2021/10/06 08:41:12;;;;;;;6.88;1.23;;;17.50;85.50;;;;;;5072578;28;20016;-76
2021/10/06 08:43:40;;;;;;;8.43;1.58;;;17.40;85.00;;;;;;5072236;28;20071;-76
2021/10/06 08:46:06;;;;;;;5.10;1.30;;;17.40;85.30;;;;;;5072412;28;20154;-75
2021/10/06 08:48:32;;;;;;;3.78;0.90;;;17.40;85.20;;;;;;5072085;28;20032;-75
2021/10/06 08:50:57;;;;;;;5.55;1.00;;;17.30;85.80;;;;;;5070659;28;20040;-77
2021/10/06 08:53:23;;;;;;;5.28;1.15;;;17.30;85.40;;;;;;5071931;28;20067;-76
2021/10/06 08:55:49;;;;;;;3.50;0.90;;;17.20;85.90;;;;;;5071896;28;20017;-75
2021/10/06 08:58:15;;;;;;;8.55;1.40;;;17.20;86.90;;;;;;5072809;28;20029;-75
2021/10/06 09:00:54;;;;;;;7.45;1.17;;;17.20;86.00;;;;;;5072357;28;20492;-75
2021/10/06 09:03:30;;;;;;;2.92;0.90;;;17.20;85.80;;;;;;5072087;28;20099;-76
2021/10/06 09:06:13;;;;;;;8.25;1.15;;;17.20;85.40;;;;;;5072134;28;20025;-75
2021/10/06 09:08:45;;;;;;;3.45;1.00;;;17.10;85.40;;;;;;5072311;28;20550;-76
2021/10/06 09:11:12;;;;;;;7.53;1.60;;;17.10;85.50;;;;;;5072443;28;20388;-76
2021/10/06 09:13:41;;;;;;;8.15;1.85;;;17.10;85.80;;;;;;5071732;28;20274;-75
2021/10/06 09:16:07;;;;;;;4.22;1.30;;;17.10;86.10;;;;;;5072223;28;20021;-76
2021/10/06 09:18:34;;;;;;;4.43;1.02;;;17.10;86.20;;;;;;5074655;28;20389;-75
2021/10/06 09:21:07;;;;;;;3.25;0.90;;;17.10;86.10;;;;;;5073186;28;20028;-76
2021/10/06 09:23:41;;;;;;;1.75;0.70;;;17.10;85.50;;;;;;5074578;28;20012;-76
2021/10/06 09:26:10;;;;;;;1.52;0.55;;;17.00;85.50;;;;;;5074585;28;20032;-75
2021/10/06 09:28:46;;;;;;;4.20;0.80;;;17.00;85.70;;;;;;5071690;28;20068;-75
2021/10/06 09:31:13;;;;;;;2.58;0.70;;;17.00;85.70;;;;;;5074091;28;20147;-74
2021/10/06 09:33:59;;;;;;;3.83;0.60;;;17.10;85.80;;;;;;5074410;28;20423;-75
2021/10/06 09:36:31;;;;;;;6.15;0.90;;;17.10;85.90;;;;;;5072866;28;20028;-76
2021/10/06 09:39:00;;;;;;;;;;;17.10;86.20;;;;;;5072260;28;20032;-75
2021/10/06 09:41:39;;;;;;;6.15;0.93;;;17.10;86.60;;;;;;5074229;28;19930;-75
2021/10/06 09:44:25;;;;;;;4.38;1.23;;;17.10;86.00;;;;;;5072808;28;20380;-76
2021/10/06 09:47:02;;;;;;;2.25;0.88;;;17.20;85.00;;;;;;5073126;28;20043;-76
2021/10/06 09:49:38;;;;;;;2.53;0.70;;;17.30;84.20;;;;;;5074113;28;20037;-76
2021/10/06 09:52:30;;;;;;;3.03;0.70;;;17.20;83.80;;;;;;5072637;28;20020;-72
2021/10/06 09:55:04;;;;;;;3.67;0.88;;;17.10;83.90;;;;;;5071438;28;20044;-76
2021/10/06 09:57:31;;;;;;;6.28;0.75;;;17.00;84.60;;;;;;5073783;28;20063;-76
2021/10/06 10:00:04;;;;;;;2.13;0.85;;;16.90;85.00;;;;;;5074737;28;20067;-76
2021/10/06 10:02:30;;;;;;;1.83;0.52;;;16.80;85.40;;;;;;5074750;28;20438;-75
2021/10/06 10:04:57;;;;;;;2.67;0.80;;;16.80;85.60;;;;;;5075228;28;20028;-76
2021/10/06 10:07:23;;;;;;;1.65;0.65;;;16.80;86.00;;;;;;5075236;28;20109;-75
2021/10/06 10:09:51;;;;;;;4.38;0.70;;;16.80;86.30;;;;;;5075292;28;20024;-75
2021/10/06 10:12:23;;;;;;;1.42;0.70;;;16.80;86.50;;;;;;5075041;28;20465;-75
2021/10/06 10:14:50;;;;;;;2.85;0.98;;;16.80;86.50;;;;;;5075054;28;20017;-76
2021/10/06 10:17:17;;;;;;;2.45;0.70;;;16.80;86.50;;;;;;5074815;28;20449;-76
2021/10/06 10:19:44;;;;;;;1.17;0.40;;;16.80;86.50;;;;;;5073644;28;20043;-74
2021/10/06 10:22:11;;;;;;;4.60;0.60;;;16.80;86.40;;;;;;5074372;28;20028;-76
2021/10/06 10:24:48;;;;;;;1.88;0.70;;;16.80;86.20;;;;;;5073651;28;20025;-76
2021/10/06 10:27:16;;;;;;;2.17;0.40;;;16.80;86.40;;;;;;5073437;28;20381;-76
2021/10/06 10:29:50;;;;;;;0.90;0.50;;;16.80;86.80;;;;;;5072441;28;20016;-74
2021/10/06 10:32:21;;;;;;;2.60;0.77;;;16.80;86.60;;;;;;5063472;28;20067;-76
2021/10/06 10:35:04;;;;;;;3.72;0.68;;;16.90;86.60;;;;;;5074489;28;20032;-75
2021/10/06 10:37:48;;;;;;;2.70;0.68;;;16.90;86.80;;;;;;5073039;28;20021;-76
2021/10/06 10:40:35;;;;;;;4.07;0.60;;;16.80;86.90;;;;;;5072167;28;20104;-75
2021/10/06 10:43:25;;;;;;;3.00;0.80;;;16.80;87.00;;;;;;5072861;28;20028;-76
2021/10/06 10:45:59;;;;;;;1.92;0.65;;;16.80;86.60;;;;;;5071458;28;20048;-75
2021/10/06 10:48:28;;;;;;;5.00;0.68;;;16.90;86.60;;;;;;5073168;28;20058;-75
2021/10/06 10:50:57;;;;;;;2.42;0.80;;;16.90;86.50;;;;;;5072980;28;20035;-76
2021/10/06 10:53:50;;;;;;;2.20;0.70;;;16.90;86.60;;;;;;5074084;28;20119;-75
2021/10/06 10:56:45;;;;;;;4.93;1.10;;;16.90;86.80;;;;;;5072675;28;20021;-75
2021/10/06 10:59:34;;;;;;;2.75;1.25;;;16.90;87.20;;;;;;5073416;28;20017;-76
2021/10/06 11:01:59;;;;;;;1.38;0.57;;;16.90;87.70;;;;;;5073528;28;20050;-75
2021/10/06 11:05:06;;;;;;;4.32;0.80;;;16.90;87.50;;;;;;5073337;28;20524;-75
2021/10/06 11:07:33;;;;;;;2.92;0.80;;;16.90;87.30;;;;;;5073243;28;20066;-76
2021/10/06 11:10:29;;;;;;;1.17;0.50;;;16.90;87.00;;;;;;5073688;28;20020;-75
2021/10/06 11:12:56;;;;;;;4.47;0.93;;;16.90;87.10;;;;;;5068246;28;20155;-76
2021/10/06 11:15:25;;;;;;;4.20;0.90;;;16.90;87.20;;;;;;5072111;28;20013;-76
2021/10/06 11:18:15;;;;;;;3.50;0.80;;;16.90;87.20;;;;;;5072102;28;20032;-76
2021/10/06 11:20:41;;;;;;;3.28;1.05;;;16.90;87.20;;;;;;5072835;28;20062;-75
2021/10/06 11:23:33;;;;;;;3.83;0.75;;;16.90;87.60;;;;;;5073306;28;20024;-76
2021/10/06 11:26:07;;;;;;;4.28;1.10;;;16.90;88.00;;;;;;5073408;28;20043;-75
2021/10/06 11:28:53;;;;;;;4.13;0.93;;;16.90;88.10;;;;;;5073510;28;20043;-75
2021/10/06 11:31:30;;;;;;;2.35;0.85;;;16.90;87.90;;;;;;5071316;28;20048;-75
2021/10/06 11:33:57;;;;;;;2.05;0.80;;;16.90;88.20;;;;;;5070715;28;20107;-76
2021/10/06 11:36:35;;;;;;;1.55;0.70;;;16.90;88.00;;;;;;5070569;28;20027;-75
2021/10/06 11:39:09;;;;;;;4.38;0.95;;;16.90;88.00;;;;;;5072711;28;20032;-75
2021/10/06 11:41:36;;;;;;;3.95;0.70;;;16.90;87.70;;;;;;5072257;28;20444;-75
2021/10/06 11:44:02;;;;;;;2.88;1.10;;;16.90;87.80;;;;;;5073052;28;20035;-74
2021/10/06 11:46:33;;;;;;;3.90;1.13;;;16.90;88.10;;;;;;5072646;28;20495;-75
2021/10/06 11:49:01;;;;;;;6.80;1.40;;;16.90;88.40;;;;;;5073408;28;20095;-76
2021/10/06 11:51:48;;;;;;;4.63;1.20;;;16.90;88.60;;;;;;5073246;28;20062;-77
2021/10/06 11:54:19;;;;;;;2.40;1.17;;;17.00;88.50;;;;;;5072275;28;20517;-75
2021/10/06 11:56:50;;;;;;;5.82;1.48;;;16.90;88.50;;;;;;5071800;28;20070;-78
2021/10/06 11:59:21;;;;;;;2.63;1.10;;;16.90;88.70;;;;;;5072630;28;20025;-75
2021/10/06 12:01:59;;;;;;;4.05;1.10;;;17.00;88.80;;;;;;5072722;28;20051;-75
2021/10/06 12:04:32;;;;;;;5.03;0.90;;;17.00;88.70;;;;;;5072727;28;20093;-75
2021/10/06 12:07:03;;;;;;;3.03;0.93;;;17.00;88.30;;;;;;5072874;28;20016;-73
2021/10/06 12:09:48;;;;;;;3.08;1.17;;;17.00;88.00;;;;;;5072387;28;20059;-74
2021/10/06 12:12:14;;;;;;;2.30;0.80;;;16.90;88.00;;;;;;5072688;28;20112;-73
2021/10/06 12:15:13;;;;;;;4.45;0.70;;;16.90;88.10;;;;;;5072218;28;20120;-75
2021/10/06 12:17:43;;;;;;;2.33;0.75;;;17.00;88.00;;;;;;5068042;28;20035;-75
2021/10/06 12:20:14;;;;;;;3.53;0.80;;;17.00;88.00;;;;;;5072251;28;20028;-75
2021/10/06 12:22:40;;;;;;;4.35;1.42;;;16.90;87.90;;;;;;5068585;28;20044;-74
2021/10/06 12:25:17;;;;;;;4.60;0.98;;;16.90;87.90;;;;;;5069343;28;20150;-74
2021/10/06 12:27:48;;;;;;;4.65;1.08;;;16.90;88.10;;;;;;5071993;28;20127;-75
2021/10/06 12:30:17;;;;;;;5.43;1.30;;;16.90;88.20;;;;;;5072105;28;20044;-75
2021/10/06 12:32:45;;;;;;;1.83;0.90;;;16.90;88.30;;;;;;5072371;28;20032;-76
2021/10/06 12:35:22;;;;;;;3.88;1.10;;;16.90;88.30;;;;;;5071879;28;20020;-75
2021/10/06 12:37:55;;;;;;;3.85;1.10;;;16.90;87.90;;;;;;5070933;28;20037;-76
2021/10/06 12:40:53;;;;;;;2.72;0.90;;;16.80;87.90;;;;;;5071512;28;20021;-75
2021/10/06 12:43:28;;;;;;;1.52;0.85;;;16.90;87.50;;;;;;5068063;28;20037;-73
2021/10/06 12:46:06;;;;;;;1.60;0.80;;;16.80;87.30;;;;;;5072468;28;20159;-76
2021/10/06 12:48:33;;;;;;;1.83;0.70;;;16.80;86.70;;;;;;5072379;28;20043;-75
2021/10/06 12:50:58;;;;;;;1.50;0.45;;;16.80;86.20;;;;;;5073260;28;20058;-75